sensor_id;sensor_type;location;lat;lon;timestamp;P1;durP1;ratioP1;P2;durP2;ratioP2
49900;SDS011;35789;48.414;12.768;2022-11-20T00:00:00;23.3;;;10.1;;
49900;SDS011;35789;48.414;12.768;2022-11-20T00:05:00;23.3;;;10.1;;
49900;SDS011;35789;48.414;12.768;2022-11-20T00:10:00;23.3;;;10.1;;
49900;SDS011;35789;48.414;12.768;2022-11-20T00:15:00;23.3;;;10.1;;
49900;SDS011;35789;48.414;12.768;2022-11-20T00:20:00;23.3;;;10.1;;
49900;SDS011;35789;48.414;12.768;2022-11-20T00:25:00;23.3;;;10.1;;
49900;SDS011;35789;48.414;12.768;2022-11-20T00:30:00;19.8;;;10.4;;
49900;SDS011;35789;48.414;12.768;2022-11-20T00:35:00;19.8;;;10.4;;
49900;SDS011;35789;48.414;12.768;2022-11-20T00:40:00;19.8;;;10.4;;
49900;SDS011;35789;48.414;12.768;2022-11-20T00:45:00;19.8;;;10.4;;
49900;SDS011;35789;48.414;12.768;2022-11-20T00:50:00;19.8;;;10.4;;
49900;SDS011;35789;48.414;12.768;2022-11-20T00:55:00;19.8;;;10.4;;
49900;SDS011;35789;48.414;12.768;2022-11-20T01:00:00;32.1;;;12.5;;
49900;SDS011;35789;48.414;12.768;2022-11-20T01:05:00;32.1;;;12.5;;
49900;SDS011;35789;48.414;12.768;2022-11-20T01:10:00;32.1;;;12.5;;
49900;SDS011;35789;48.414;12.768;2022-11-20T01:15:00;32.1;;;12.5;;
49900;SDS011;35789;48.414;12.768;2022-11-20T01:20:00;32.1;;;12.5;;
49900;SDS011;35789;48.414;12.768;2022-11-20T01:25:00;32.1;;;12.5;;
49900;SDS011;35789;48.414;12.768;2022-11-20T01:30:00;18.8;;;8.9;;
49900;SDS011;35789;48.414;12.768;2022-11-20T01:35:00;18.8;;;8.9;;
49900;SDS011;35789;48.414;12.768;2022-11-20T01:40:00;18.8;;;8.9;;
49900;SDS011;35789;48.414;12.768;2022-11-20T01:45:00;18.8;;;8.9;;
49900;SDS011;35789;48.414;12.768;2022-11-20T01:50:04;18.8;;;8.9;;
49900;SDS011;35789;48.414;12.768;2022-11-20T01:55:04;18.8;;;8.9;;
49900;SDS011;35789;48.414;12.768;2022-11-20T02:00:04;16.7;;;7.8;;
49900;SDS011;35789;48.414;12.768;2022-11-20T02:05:04;16.7;;;7.8;;
49900;SDS011;35789;48.414;12.768;2022-11-20T02:10:00;16.7;;;7.8;;
49900;SDS011;35789;48.414;12.768;2022-11-20T02:15:00;16.7;;;7.8;;
49900;SDS011;35789;48.414;12.768;2022-11-20T02:20:00;16.7;;;7.8;;
49900;SDS011;35789;48.414;12.768;2022-11-20T02:25:01;16.7;;;7.8;;
49900;SDS011;35789;48.414;12.768;2022-11-20T02:30:02;13.4;;;5.7;;
49900;SDS011;35789;48.414;12.768;2022-11-20T02:35:07;13.4;;;5.7;;
49900;SDS011;35789;48.414;12.768;2022-11-20T02:40:00;13.4;;;5.7;;
49900;SDS011;35789;48.414;12.768;2022-11-20T02:45:00;13.4;;;5.7;;
49900;SDS011;35789;48.414;12.768;2022-11-20T02:50:00;13.4;;;5.7;;
49900;SDS011;35789;48.414;12.768;2022-11-20T02:55:00;13.4;;;5.7;;
49900;SDS011;35789;48.414;12.768;2022-11-20T03:00:00;11.8;;;5.9;;
49900;SDS011;35789;48.414;12.768;2022-11-20T03:05:00;11.8;;;5.9;;
49900;SDS011;35789;48.414;12.768;2022-11-20T03:10:00;11.8;;;5.9;;
49900;SDS011;35789;48.414;12.768;2022-11-20T03:15:00;11.8;;;5.9;;
49900;SDS011;35789;48.414;12.768;2022-11-20T03:20:00;11.8;;;5.9;;
49900;SDS011;35789;48.414;12.768;2022-11-20T03:25:00;11.8;;;5.9;;
49900;SDS011;35789;48.414;12.768;2022-11-20T03:30:00;13.0;;;6.2;;
49900;SDS011;35789;48.414;12.768;2022-11-20T03:35:00;13.0;;;6.2;;
49900;SDS011;35789;48.414;12.768;2022-11-20T03:40:00;13.0;;;6.2;;
49900;SDS011;35789;48.414;12.768;2022-11-20T03:45:00;13.0;;;6.2;;
49900;SDS011;35789;48.414;12.768;2022-11-20T03:50:00;13.0;;;6.2;;
49900;SDS011;35789;48.414;12.768;2022-11-20T03:55:00;13.0;;;6.2;;
49900;SDS011;35789;48.414;12.768;2022-11-20T04:00:00;17.1;;;7.4;;
49900;SDS011;35789;48.414;12.768;2022-11-20T04:05:00;17.1;;;7.4;;
49900;SDS011;35789;48.414;12.768;2022-11-20T04:10:00;17.1;;;7.4;;
49900;SDS011;35789;48.414;12.768;2022-11-20T04:15:00;17.1;;;7.4;;
49900;SDS011;35789;48.414;12.768;2022-11-20T04:20:00;17.1;;;7.4;;
49900;SDS011;35789;48.414;12.768;2022-11-20T04:25:00;17.1;;;7.4;;
49900;SDS011;35789;48.414;12.768;2022-11-20T04:30:00;11.7;;;5.6;;
49900;SDS011;35789;48.414;12.768;2022-11-20T04:35:00;11.7;;;5.6;;
49900;SDS011;35789;48.414;12.768;2022-11-20T04:40:00;11.7;;;5.6;;
49900;SDS011;35789;48.414;12.768;2022-11-20T04:45:00;11.7;;;5.6;;
49900;SDS011;35789;48.414;12.768;2022-11-20T04:50:00;11.7;;;5.6;;
49900;SDS011;35789;48.414;12.768;2022-11-20T04:55:00;11.7;;;5.6;;
49900;SDS011;35789;48.414;12.768;2022-11-20T05:00:00;11.2;;;6.3;;
49900;SDS011;35789;48.414;12.768;2022-11-20T05:05:00;11.2;;;6.3;;
49900;SDS011;35789;48.414;12.768;2022-11-20T05:10:00;11.2;;;6.3;;
49900;SDS011;35789;48.414;12.768;2022-11-20T05:15:00;11.2;;;6.3;;
49900;SDS011;35789;48.414;12.768;2022-11-20T05:20:00;11.2;;;6.3;;
49900;SDS011;35789;48.414;12.768;2022-11-20T05:25:00;11.2;;;6.3;;
49900;SDS011;35789;48.414;12.768;2022-11-20T05:30:00;12.4;;;5.0;;
49900;SDS011;35789;48.414;12.768;2022-11-20T05:35:00;12.4;;;5.0;;
49900;SDS011;35789;48.414;12.768;2022-11-20T05:40:00;12.4;;;5.0;;
49900;SDS011;35789;48.414;12.768;2022-11-20T05:45:02;12.4;;;5.0;;
49900;SDS011;35789;48.414;12.768;2022-11-20T05:50:00;12.4;;;5.0;;
49900;SDS011;35789;48.414;12.768;2022-11-20T05:55:00;12.4;;;5.0;;
49900;SDS011;35789;48.414;12.768;2022-11-20T06:00:00;11.8;;;5.4;;
49900;SDS011;35789;48.414;12.768;2022-11-20T06:05:00;11.8;;;5.4;;
49900;SDS011;35789;48.414;12.768;2022-11-20T06:10:00;11.8;;;5.4;;
49900;SDS011;35789;48.414;12.768;2022-11-20T06:15:00;11.8;;;5.4;;
49900;SDS011;35789;48.414;12.768;2022-11-20T06:20:00;11.8;;;5.4;;
49900;SDS011;35789;48.414;12.768;2022-11-20T06:25:00;11.8;;;5.4;;
49900;SDS011;35789;48.414;12.768;2022-11-20T06:30:00;11.8;;;5.0;;
49900;SDS011;35789;48.414;12.768;2022-11-20T06:35:00;11.8;;;5.0;;
49900;SDS011;35789;48.414;12.768;2022-11-20T06:40:00;11.8;;;5.0;;
49900;SDS011;35789;48.414;12.768;2022-11-20T06:45:00;11.8;;;5.0;;
49900;SDS011;35789;48.414;12.768;2022-11-20T06:50:00;11.8;;;5.0;;
49900;SDS011;35789;48.414;12.768;2022-11-20T06:55:00;11.8;;;5.0;;
49900;SDS011;35789;48.414;12.768;2022-11-20T07:00:00;10.8;;;4.8;;
49900;SDS011;35789;48.414;12.768;2022-11-20T07:05:00;10.8;;;4.8;;
49900;SDS011;35789;48.414;12.768;2022-11-20T07:10:00;10.8;;;4.8;;
49900;SDS011;35789;48.414;12.768;2022-11-20T07:15:00;10.8;;;4.8;;
49900;SDS011;35789;48.414;12.768;2022-11-20T07:20:00;10.8;;;4.8;;
49900;SDS011;35789;48.414;12.768;2022-11-20T07:25:00;10.8;;;4.8;;
49900;SDS011;35789;48.414;12.768;2022-11-20T07:30:00;12.4;;;6.9;;
49900;SDS011;35789;48.414;12.768;2022-11-20T07:35:00;12.4;;;6.9;;
49900;SDS011;35789;48.414;12.768;2022-11-20T07:40:00;12.4;;;6.9;;
49900;SDS011;35789;48.414;12.768;2022-11-20T07:45:00;12.4;;;6.9;;
49900;SDS011;35789;48.414;12.768;2022-11-20T07:50:00;12.4;;;6.9;;
49900;SDS011;35789;48.414;12.768;2022-11-20T07:55:00;12.4;;;6.9;;
49900;SDS011;35789;48.414;12.768;2022-11-20T08:00:00;16.7;;;9.3;;
49900;SDS011;35789;48.414;12.768;2022-11-20T08:05:00;16.7;;;9.3;;
49900;SDS011;35789;48.414;12.768;2022-11-20T08:10:00;16.7;;;9.3;;
49900;SDS011;35789;48.414;12.768;2022-11-20T08:15:00;16.7;;;9.3;;
49900;SDS011;35789;48.414;12.768;2022-11-20T08:20:00;16.7;;;9.3;;
49900;SDS011;35789;48.414;12.768;2022-11-20T08:25:00;16.7;;;9.3;;
49900;SDS011;35789;48.414;12.768;2022-11-20T08:30:00;10.0;;;4.6;;
49900;SDS011;35789;48.414;12.768;2022-11-20T08:35:00;10.0;;;4.6;;
49900;SDS011;35789;48.414;12.768;2022-11-20T08:40:00;10.0;;;4.6;;
49900;SDS011;35789;48.414;12.768;2022-11-20T08:45:00;10.0;;;4.6;;
49900;SDS011;35789;48.414;12.768;2022-11-20T08:50:00;10.0;;;4.6;;
49900;SDS011;35789;48.414;12.768;2022-11-20T08:55:00;10.0;;;4.6;;
49900;SDS011;35789;48.414;12.768;2022-11-20T09:00:01;10.6;;;5.2;;
49900;SDS011;35789;48.414;12.768;2022-11-20T09:05:00;10.6;;;5.2;;
49900;SDS011;35789;48.414;12.768;2022-11-20T09:10:00;10.6;;;5.2;;
49900;SDS011;35789;48.414;12.768;2022-11-20T09:15:00;10.6;;;5.2;;
49900;SDS011;35789;48.414;12.768;2022-11-20T09:20:00;10.6;;;5.2;;
49900;SDS011;35789;48.414;12.768;2022-11-20T09:25:00;10.6;;;5.2;;
49900;SDS011;35789;48.414;12.768;2022-11-20T09:30:00;8.4;;;3.8;;
49900;SDS011;35789;48.414;12.768;2022-11-20T09:35:00;8.4;;;3.8;;
49900;SDS011;35789;48.414;12.768;2022-11-20T09:40:00;8.4;;;3.8;;
49900;SDS011;35789;48.414;12.768;2022-11-20T09:45:10;8.4;;;3.8;;
49900;SDS011;35789;48.414;12.768;2022-11-20T09:50:07;8.4;;;3.8;;
49900;SDS011;35789;48.414;12.768;2022-11-20T09:55:01;6.8;;;2.7;;
49900;SDS011;35789;48.414;12.768;2022-11-20T10:00:04;6.8;;;2.7;;
49900;SDS011;35789;48.414;12.768;2022-11-20T10:05:06;6.8;;;2.7;;
49900;SDS011;35789;48.414;12.768;2022-11-20T10:10:00;6.8;;;2.7;;
49900;SDS011;35789;48.414;12.768;2022-11-20T10:15:11;6.8;;;2.7;;
49900;SDS011;35789;48.414;12.768;2022-11-20T10:20:14;6.8;;;2.7;;
49900;SDS011;35789;48.414;12.768;2022-11-20T10:25:05;6.4;;;3.1;;
49900;SDS011;35789;48.414;12.768;2022-11-20T10:30:03;6.4;;;3.1;;
49900;SDS011;35789;48.414;12.768;2022-11-20T10:35:03;6.4;;;3.1;;
49900;SDS011;35789;48.414;12.768;2022-11-20T10:40:04;6.4;;;3.1;;
49900;SDS011;35789;48.414;12.768;2022-11-20T10:45:09;6.4;;;3.1;;
49900;SDS011;35789;48.414;12.768;2022-11-20T10:50:03;6.4;;;3.1;;
49900;SDS011;35789;48.414;12.768;2022-11-20T10:55:08;5.5;;;2.9;;
49900;SDS011;35789;48.414;12.768;2022-11-20T11:00:04;5.5;;;2.9;;
49900;SDS011;35789;48.414;12.768;2022-11-20T11:05:07;5.5;;;2.9;;
49900;SDS011;35789;48.414;12.768;2022-11-20T11:10:00;5.5;;;2.9;;
49900;SDS011;35789;48.414;12.768;2022-11-20T11:15:00;5.5;;;2.9;;
49900;SDS011;35789;48.414;12.768;2022-11-20T11:20:03;5.5;;;2.9;;
49900;SDS011;35789;48.414;12.768;2022-11-20T11:25:00;5.6;;;2.4;;
49900;SDS011;35789;48.414;12.768;2022-11-20T11:30:11;5.6;;;2.4;;
49900;SDS011;35789;48.414;12.768;2022-11-20T11:35:02;5.6;;;2.4;;
49900;SDS011;35789;48.414;12.768;2022-11-20T11:40:00;5.6;;;2.4;;
49900;SDS011;35789;48.414;12.768;2022-11-20T11:45:00;5.6;;;2.4;;
49900;SDS011;35789;48.414;12.768;2022-11-20T11:50:01;5.6;;;2.4;;
49900;SDS011;35789;48.414;12.768;2022-11-20T11:55:01;6.2;;;2.7;;
49900;SDS011;35789;48.414;12.768;2022-11-20T12:00:03;6.2;;;2.7;;
49900;SDS011;35789;48.414;12.768;2022-11-20T12:05:03;6.2;;;2.7;;
49900;SDS011;35789;48.414;12.768;2022-11-20T12:10:01;6.2;;;2.7;;
49900;SDS011;35789;48.414;12.768;2022-11-20T12:15:00;6.2;;;2.7;;
49900;SDS011;35789;48.414;12.768;2022-11-20T12:20:00;6.2;;;2.7;;
49900;SDS011;35789;48.414;12.768;2022-11-20T12:25:02;5.3;;;2.4;;
49900;SDS011;35789;48.414;12.768;2022-11-20T12:30:03;5.3;;;2.4;;
49900;SDS011;35789;48.414;12.768;2022-11-20T12:35:05;5.3;;;2.4;;
49900;SDS011;35789;48.414;12.768;2022-11-20T12:40:13;5.3;;;2.4;;
49900;SDS011;35789;48.414;12.768;2022-11-20T12:45:11;5.3;;;2.4;;
49900;SDS011;35789;48.414;12.768;2022-11-20T12:50:09;5.3;;;2.4;;
49900;SDS011;35789;48.414;12.768;2022-11-20T12:55:09;7.6;;;3.4;;
49900;SDS011;35789;48.414;12.768;2022-11-20T13:00:08;7.6;;;3.4;;
49900;SDS011;35789;48.414;12.768;2022-11-20T13:05:09;7.6;;;3.4;;
49900;SDS011;35789;48.414;12.768;2022-11-20T13:10:00;7.6;;;3.4;;
49900;SDS011;35789;48.414;12.768;2022-11-20T13:15:06;7.6;;;3.4;;
49900;SDS011;35789;48.414;12.768;2022-11-20T13:20:01;7.6;;;3.4;;
49900;SDS011;35789;48.414;12.768;2022-11-20T13:25:00;5.0;;;2.4;;
49900;SDS011;35789;48.414;12.768;2022-11-20T13:30:10;5.0;;;2.4;;
49900;SDS011;35789;48.414;12.768;2022-11-20T13:35:01;5.0;;;2.4;;
49900;SDS011;35789;48.414;12.768;2022-11-20T13:40:12;5.0;;;2.4;;
49900;SDS011;35789;48.414;12.768;2022-11-20T13:45:09;5.0;;;2.4;;
49900;SDS011;35789;48.414;12.768;2022-11-20T13:50:03;5.0;;;2.4;;
49900;SDS011;35789;48.414;12.768;2022-11-20T13:55:08;3.7;;;1.2;;
49900;SDS011;35789;48.414;12.768;2022-11-20T14:00:07;3.7;;;1.2;;
49900;SDS011;35789;48.414;12.768;2022-11-20T14:05:01;3.7;;;1.2;;
49900;SDS011;35789;48.414;12.768;2022-11-20T14:10:00;3.7;;;1.2;;
49900;SDS011;35789;48.414;12.768;2022-11-20T14:15:00;3.7;;;1.2;;
49900;SDS011;35789;48.414;12.768;2022-11-20T14:20:03;3.7;;;1.2;;
49900;SDS011;35789;48.414;12.768;2022-11-20T14:25:03;6.0;;;2.5;;
49900;SDS011;35789;48.414;12.768;2022-11-20T14:30:00;6.0;;;2.5;;
49900;SDS011;35789;48.414;12.768;2022-11-20T14:35:08;6.0;;;2.5;;
49900;SDS011;35789;48.414;12.768;2022-11-20T14:40:00;6.0;;;2.5;;
49900;SDS011;35789;48.414;12.768;2022-11-20T14:45:00;6.0;;;2.5;;
49900;SDS011;35789;48.414;12.768;2022-11-20T14:50:00;6.0;;;2.5;;
49900;SDS011;35789;48.414;12.768;2022-11-20T14:55:00;4.4;;;2.1;;
49900;SDS011;35789;48.414;12.768;2022-11-20T15:00:05;4.4;;;2.1;;
49900;SDS011;35789;48.414;12.768;2022-11-20T15:05:01;4.4;;;2.1;;
49900;SDS011;35789;48.414;12.768;2022-11-20T15:10:02;4.4;;;2.1;;
49900;SDS011;35789;48.414;12.768;2022-11-20T15:15:01;4.4;;;2.1;;
49900;SDS011;35789;48.414;12.768;2022-11-20T15:20:01;4.4;;;2.1;;
49900;SDS011;35789;48.414;12.768;2022-11-20T15:25:00;4.2;;;2.0;;
49900;SDS011;35789;48.414;12.768;2022-11-20T15:30:00;4.2;;;2.0;;
49900;SDS011;35789;48.414;12.768;2022-11-20T15:35:00;4.2;;;2.0;;
49900;SDS011;35789;48.414;12.768;2022-11-20T15:40:00;4.2;;;2.0;;
49900;SDS011;35789;48.414;12.768;2022-11-20T15:45:00;4.2;;;2.0;;
49900;SDS011;35789;48.414;12.768;2022-11-20T15:50:00;4.2;;;2.0;;
49900;SDS011;35789;48.414;12.768;2022-11-20T15:55:00;6.4;;;2.7;;
49900;SDS011;35789;48.414;12.768;2022-11-20T16:00:00;6.4;;;2.7;;
49900;SDS011;35789;48.414;12.768;2022-11-20T16:05:00;6.4;;;2.7;;
49900;SDS011;35789;48.414;12.768;2022-11-20T16:10:00;6.4;;;2.7;;
49900;SDS011;35789;48.414;12.768;2022-11-20T16:15:00;6.4;;;2.7;;
49900;SDS011;35789;48.414;12.768;2022-11-20T16:20:00;6.4;;;2.7;;
49900;SDS011;35789;48.414;12.768;2022-11-20T16:25:00;4.2;;;2.0;;
49900;SDS011;35789;48.414;12.768;2022-11-20T16:30:00;4.2;;;2.0;;
49900;SDS011;35789;48.414;12.768;2022-11-20T16:35:00;4.2;;;2.0;;
49900;SDS011;35789;48.414;12.768;2022-11-20T16:40:00;4.2;;;2.0;;
49900;SDS011;35789;48.414;12.768;2022-11-20T16:45:00;4.2;;;2.0;;
49900;SDS011;35789;48.414;12.768;2022-11-20T16:50:00;4.2;;;2.0;;
49900;SDS011;35789;48.414;12.768;2022-11-20T16:55:00;3.9;;;1.8;;
49900;SDS011;35789;48.414;12.768;2022-11-20T17:00:00;3.9;;;1.8;;
49900;SDS011;35789;48.414;12.768;2022-11-20T17:05:00;3.9;;;1.8;;
49900;SDS011;35789;48.414;12.768;2022-11-20T17:10:00;3.9;;;1.8;;
49900;SDS011;35789;48.414;12.768;2022-11-20T17:15:00;3.9;;;1.8;;
49900;SDS011;35789;48.414;12.768;2022-11-20T17:20:00;3.9;;;1.8;;
49900;SDS011;35789;48.414;12.768;2022-11-20T17:25:00;6.2;;;3.0;;
49900;SDS011;35789;48.414;12.768;2022-11-20T17:30:00;6.2;;;3.0;;
49900;SDS011;35789;48.414;12.768;2022-11-20T17:35:00;6.2;;;3.0;;
49900;SDS011;35789;48.414;12.768;2022-11-20T17:40:00;6.2;;;3.0;;
49900;SDS011;35789;48.414;12.768;2022-11-20T17:45:00;6.2;;;3.0;;
49900;SDS011;35789;48.414;12.768;2022-11-20T17:50:00;6.2;;;3.0;;
49900;SDS011;35789;48.414;12.768;2022-11-20T17:55:00;12.0;;;6.1;;
49900;SDS011;35789;48.414;12.768;2022-11-20T18:00:00;12.0;;;6.1;;
49900;SDS011;35789;48.414;12.768;2022-11-20T18:05:00;12.0;;;6.1;;
49900;SDS011;35789;48.414;12.768;2022-11-20T18:10:00;12.0;;;6.1;;
49900;SDS011;35789;48.414;12.768;2022-11-20T18:15:00;12.0;;;6.1;;
49900;SDS011;35789;48.414;12.768;2022-11-20T18:20:00;12.0;;;6.1;;
49900;SDS011;35789;48.414;12.768;2022-11-20T18:25:00;11.2;;;5.9;;
49900;SDS011;35789;48.414;12.768;2022-11-20T18:30:00;11.2;;;5.9;;
49900;SDS011;35789;48.414;12.768;2022-11-20T18:35:00;11.2;;;5.9;;
49900;SDS011;35789;48.414;12.768;2022-11-20T18:40:00;11.2;;;5.9;;
49900;SDS011;35789;48.414;12.768;2022-11-20T18:45:00;11.2;;;5.9;;
49900;SDS011;35789;48.414;12.768;2022-11-20T18:50:00;11.2;;;5.9;;
49900;SDS011;35789;48.414;12.768;2022-11-20T18:55:01;8.8;;;4.6;;
49900;SDS011;35789;48.414;12.768;2022-11-20T19:00:00;8.8;;;4.6;;
49900;SDS011;35789;48.414;12.768;2022-11-20T19:05:00;8.8;;;4.6;;
49900;SDS011;35789;48.414;12.768;2022-11-20T19:10:00;8.8;;;4.6;;
49900;SDS011;35789;48.414;12.768;2022-11-20T19:15:00;8.8;;;4.6;;
49900;SDS011;35789;48.414;12.768;2022-11-20T19:20:00;8.8;;;4.6;;
49900;SDS011;35789;48.414;12.768;2022-11-20T19:25:00;10.4;;;4.9;;
49900;SDS011;35789;48.414;12.768;2022-11-20T19:30:00;10.4;;;4.9;;
49900;SDS011;35789;48.414;12.768;2022-11-20T19:35:00;10.4;;;4.9;;
49900;SDS011;35789;48.414;12.768;2022-11-20T19:40:00;10.4;;;4.9;;
49900;SDS011;35789;48.414;12.768;2022-11-20T19:45:00;10.4;;;4.9;;
49900;SDS011;35789;48.414;12.768;2022-11-20T19:50:00;10.4;;;4.9;;
49900;SDS011;35789;48.414;12.768;2022-11-20T19:55:00;12.4;;;5.8;;
49900;SDS011;35789;48.414;12.768;2022-11-20T20:00:00;12.4;;;5.8;;
49900;SDS011;35789;48.414;12.768;2022-11-20T20:05:00;12.4;;;5.8;;
49900;SDS011;35789;48.414;12.768;2022-11-20T20:10:00;12.4;;;5.8;;
49900;SDS011;35789;48.414;12.768;2022-11-20T20:15:00;12.4;;;5.8;;
49900;SDS011;35789;48.414;12.768;2022-11-20T20:20:00;12.4;;;5.8;;
49900;SDS011;35789;48.414;12.768;2022-11-20T20:25:00;9.9;;;4.7;;
49900;SDS011;35789;48.414;12.768;2022-11-20T20:30:00;9.9;;;4.7;;
49900;SDS011;35789;48.414;12.768;2022-11-20T20:35:00;9.9;;;4.7;;
49900;SDS011;35789;48.414;12.768;2022-11-20T20:40:00;9.9;;;4.7;;
49900;SDS011;35789;48.414;12.768;2022-11-20T20:45:00;9.9;;;4.7;;
49900;SDS011;35789;48.414;12.768;2022-11-20T20:50:00;9.9;;;4.7;;
49900;SDS011;35789;48.414;12.768;2022-11-20T20:55:00;7.9;;;3.6;;
49900;SDS011;35789;48.414;12.768;2022-11-20T21:00:00;7.9;;;3.6;;
49900;SDS011;35789;48.414;12.768;2022-11-20T21:05:00;7.9;;;3.6;;
49900;SDS011;35789;48.414;12.768;2022-11-20T21:10:00;7.9;;;3.6;;
49900;SDS011;35789;48.414;12.768;2022-11-20T21:15:00;7.9;;;3.6;;
49900;SDS011;35789;48.414;12.768;2022-11-20T21:20:00;7.9;;;3.6;;
49900;SDS011;35789;48.414;12.768;2022-11-20T21:25:00;8.9;;;3.4;;
49900;SDS011;35789;48.414;12.768;2022-11-20T21:30:00;8.9;;;3.4;;
49900;SDS011;35789;48.414;12.768;2022-11-20T21:35:00;8.9;;;3.4;;
49900;SDS011;35789;48.414;12.768;2022-11-20T21:40:00;8.9;;;3.4;;
49900;SDS011;35789;48.414;12.768;2022-11-20T21:45:00;8.9;;;3.4;;
49900;SDS011;35789;48.414;12.768;2022-11-20T21:50:00;8.9;;;3.4;;
49900;SDS011;35789;48.414;12.768;2022-11-20T21:55:00;5.3;;;3.1;;
49900;SDS011;35789;48.414;12.768;2022-11-20T22:00:00;5.3;;;3.1;;
49900;SDS011;35789;48.414;12.768;2022-11-20T22:05:00;5.3;;;3.1;;
49900;SDS011;35789;48.414;12.768;2022-11-20T22:10:00;5.3;;;3.1;;
49900;SDS011;35789;48.414;12.768;2022-11-20T22:15:00;5.3;;;3.1;;
49900;SDS011;35789;48.414;12.768;2022-11-20T22:20:00;5.3;;;3.1;;
49900;SDS011;35789;48.414;12.768;2022-11-20T22:25:00;11.9;;;5.3;;
49900;SDS011;35789;48.414;12.768;2022-11-20T22:30:00;11.9;;;5.3;;
49900;SDS011;35789;48.414;12.768;2022-11-20T22:35:00;11.9;;;5.3;;
49900;SDS011;35789;48.414;12.768;2022-11-20T22:40:00;11.9;;;5.3;;
49900;SDS011;35789;48.414;12.768;2022-11-20T22:45:00;11.9;;;5.3;;
49900;SDS011;35789;48.414;12.768;2022-11-20T22:50:00;11.9;;;5.3;;
49900;SDS011;35789;48.414;12.768;2022-11-20T22:55:00;8.6;;;3.6;;
49900;SDS011;35789;48.414;12.768;2022-11-20T23:00:00;8.6;;;3.6;;
49900;SDS011;35789;48.414;12.768;2022-11-20T23:05:00;8.6;;;3.6;;
49900;SDS011;35789;48.414;12.768;2022-11-20T23:10:00;8.6;;;3.6;;
49900;SDS011;35789;48.414;12.768;2022-11-20T23:15:00;8.6;;;3.6;;
49900;SDS011;35789;48.414;12.768;2022-11-20T23:20:00;6.6;;;2.2;;
49900;SDS011;35789;48.414;12.768;2022-11-20T23:25:00;6.6;;;2.2;;
49900;SDS011;35789;48.414;12.768;2022-11-20T23:30:00;6.6;;;2.2;;
49900;SDS011;35789;48.414;12.768;2022-11-20T23:35:00;6.6;;;2.2;;
49900;SDS011;35789;48.414;12.768;2022-11-20T23:40:00;6.6;;;2.2;;
49900;SDS011;35789;48.414;12.768;2022-11-20T23:45:00;6.6;;;2.2;;
49900;SDS011;35789;48.414;12.768;2022-11-20T23:50:00;4.9;;;2.4;;
49900;SDS011;35789;48.414;12.768;2022-11-20T23:55:00;4.9;;;2.4;;
